Time;durP1;ratioP1;P1;durP2;ratioP2;P2;SDS_P1;SDS_P2;PMS_P1;PMS_P2;Temp;Humidity;BMP_temperature;BMP_pressure;BME280_temperature;BME280_humidity;BME280_pressure;Samples;Min_cycle;Max_cycle;Signal;HPM_P1;HPM_P2
2022/06/23 00:00:23;;;;;;;11.73;8.25;;;17.50;99.90;;;;;;5093670;28;20027;-79
2022/06/23 00:02:49;;;;;;;12.15;9.02;;;17.50;99.90;;;;;;5093825;28;20105;-79
2022/06/23 00:05:18;;;;;;;12.30;9.07;;;17.40;99.90;;;;;;5094527;28;20597;-79
2022/06/23 00:07:50;;;;;;;16.20;8.80;;;17.40;99.90;;;;;;5092764;28;20093;-80
2022/06/23 00:10:26;;;;;;;14.98;8.05;;;17.30;99.90;;;;;;5093982;28;20035;-80
2022/06/23 00:12:52;;;;;;;12.23;8.55;;;17.30;99.90;;;;;;5093958;28;20032;-79
2022/06/23 00:15:27;;;;;;;9.18;8.25;;;17.40;99.90;;;;;;5095400;28;20020;-80
2022/06/23 00:18:01;;;;;;;11.18;8.50;;;17.30;99.90;;;;;;5093781;28;20054;-79
2022/06/23 00:20:33;;;;;;;15.55;9.13;;;17.30;99.90;;;;;;5093528;28;20023;-79
2022/06/23 00:23:22;;;;;;;10.68;8.65;;;17.30;99.90;;;;;;5097717;28;20028;-78
2022/06/23 00:25:56;;;;;;;15.15;9.20;;;17.30;99.90;;;;;;5097926;28;20052;-77
2022/06/23 00:28:50;;;;;;;9.93;8.38;;;17.20;99.90;;;;;;5097006;28;20085;-79
2022/06/23 00:31:56;;;;;;;12.07;8.70;;;17.20;99.90;;;;;;5087572;28;20056;-78
2022/06/23 00:34:38;;;;;;;13.40;8.05;;;17.10;99.90;;;;;;5046525;28;20036;-78
2022/06/23 00:37:14;;;;;;;14.15;9.20;;;17.10;99.90;;;;;;5098039;28;20472;-78
2022/06/23 00:39:46;;;;;;;12.50;8.98;;;17.10;99.90;;;;;;5097460;28;20554;-79
2022/06/23 00:42:21;;;;;;;12.38;9.02;;;17.10;99.90;;;;;;5096860;28;20055;-79
2022/06/23 00:45:10;;;;;;;12.40;9.57;;;17.00;99.90;;;;;;5096949;28;20036;-80
2022/06/23 00:47:47;;;;;;;12.82;9.00;;;17.00;99.90;;;;;;5096929;28;20125;-79
2022/06/23 00:50:31;;;;;;;12.65;8.00;;;17.00;99.90;;;;;;5096099;28;20022;-78
2022/06/23 00:53:12;;;;;;;8.45;7.65;;;16.90;99.90;;;;;;5096840;28;20391;-77
2022/06/23 00:55:54;;;;;;;14.57;8.65;;;16.90;99.90;;;;;;5096521;28;20039;-78
2022/06/23 00:58:44;;;;;;;11.48;8.40;;;16.90;99.90;;;;;;5097359;28;20020;-79
2022/06/23 01:01:43;;;;;;;11.77;8.15;;;16.90;99.90;;;;;;5095905;28;20032;-78
2022/06/23 01:04:27;;;;;;;14.18;8.80;;;16.90;99.90;;;;;;5055761;28;20028;-78
2022/06/23 01:07:01;;;;;;;11.70;9.32;;;16.80;99.90;;;;;;5097073;28;20071;-78
2022/06/23 01:09:34;;;;;;;11.35;8.80;;;16.70;99.90;;;;;;5096338;28;20024;-79
2022/06/23 01:12:22;;;;;;;15.93;8.40;;;16.80;99.90;;;;;;5096571;28;20086;-79
2022/06/23 01:14:58;;;;;;;11.35;8.05;;;16.70;99.90;;;;;;5096702;28;20024;-77
2022/06/23 01:17:53;;;;;;;9.68;8.70;;;16.70;99.90;;;;;;5096368;28;20088;-78
2022/06/23 01:20:29;;;;;;;11.30;8.63;;;16.70;99.90;;;;;;5093259;28;20036;-80
2022/06/23 01:23:26;;;;;;;9.15;8.30;;;16.60;99.90;;;;;;5095956;28;20020;-79
2022/06/23 01:26:20;;;;;;;14.40;8.85;;;16.60;99.90;;;;;;5075843;28;20115;-78
2022/06/23 01:28:46;;;;;;;13.55;8.90;;;16.60;99.90;;;;;;5096206;28;20490;-79
2022/06/23 01:31:21;;;;;;;11.25;8.57;;;16.60;99.90;;;;;;5095357;28;20032;-78
2022/06/23 01:33:59;;;;;;;16.15;8.23;;;16.60;99.90;;;;;;5097802;28;20032;-78
2022/06/23 01:36:40;;;;;;;12.38;8.20;;;16.40;99.90;;;;;;5097524;28;20093;-79
2022/06/23 01:39:05;;;;;;;12.57;8.60;;;16.50;99.90;;;;;;5096982;28;20028;-79
2022/06/23 01:41:39;;;;;;;14.73;8.40;;;16.50;99.90;;;;;;5096801;28;20556;-79
2022/06/23 01:44:09;;;;;;;12.10;8.48;;;16.40;99.90;;;;;;5096200;28;20067;-79
2022/06/23 01:46:37;;;;;;;14.63;8.68;;;16.40;99.90;;;;;;5095321;28;20202;-78
2022/06/23 01:49:27;;;;;;;12.18;8.30;;;16.40;99.90;;;;;;5095296;28;20384;-78
2022/06/23 01:52:10;;;;;;;9.77;8.15;;;16.40;99.90;;;;;;5095178;28;20028;-79
2022/06/23 01:54:38;;;;;;;9.25;8.02;;;16.30;99.90;;;;;;5095946;28;20032;-79
2022/06/23 01:57:28;;;;;;;10.30;8.45;;;16.40;99.90;;;;;;5095797;28;20032;-79
2022/06/23 02:00:00;;;;;;;13.45;8.52;;;16.30;99.90;;;;;;5095053;28;20020;-77
2022/06/23 02:02:45;;;;;;;13.48;7.95;;;16.20;99.90;;;;;;5095178;28;20396;-78
2022/06/23 02:05:31;;;;;;;15.70;8.50;;;16.20;99.90;;;;;;5096279;28;20440;-78
2022/06/23 02:08:35;;;;;;;9.52;7.70;;;16.20;99.90;;;;;;5095245;28;20055;-78
2022/06/23 02:11:24;;;;;;;11.93;8.65;;;16.20;99.90;;;;;;5095550;28;20028;-78
2022/06/23 02:14:14;;;;;;;9.35;7.78;;;16.20;99.90;;;;;;5094111;28;20360;-78
2022/06/23 02:17:01;;;;;;;12.73;7.50;;;16.10;99.90;;;;;;5095327;28;20024;-78
2022/06/23 02:19:55;;;;;;;9.85;8.18;;;16.10;99.90;;;;;;5095298;28;20036;-78
2022/06/23 02:22:36;;;;;;;12.45;7.95;;;16.10;99.90;;;;;;5095178;28;20423;-78
2022/06/23 02:25:13;;;;;;;9.60;8.60;;;16.10;99.90;;;;;;5094898;28;20035;-79
2022/06/23 02:27:46;;;;;;;11.40;7.75;;;16.10;99.90;;;;;;5094701;28;20028;-79
2022/06/23 02:30:37;;;;;;;13.68;8.30;;;16.10;99.90;;;;;;5096750;28;20038;-78
2022/06/23 02:33:18;;;;;;;15.20;8.35;;;16.00;99.90;;;;;;5098381;28;20065;-79
2022/06/23 02:35:51;;;;;;;12.32;8.57;;;16.00;99.90;;;;;;5097881;28;20028;-78
2022/06/23 02:38:45;;;;;;;9.90;7.95;;;16.00;99.90;;;;;;5098652;28;20028;-82
2022/06/23 02:41:39;;;;;;;15.73;8.35;;;16.00;99.90;;;;;;5097076;28;20032;-78
2022/06/23 02:44:19;;;;;;;12.85;8.63;;;16.00;99.90;;;;;;5097141;28;20024;-80
2022/06/23 02:47:10;;;;;;;14.35;7.88;;;15.90;99.90;;;;;;5097331;28;20085;-77
2022/06/23 02:50:08;;;;;;;11.48;9.15;;;16.00;99.90;;;;;;5096475;28;20039;-79
2022/06/23 02:52:59;;;;;;;12.27;8.55;;;15.90;99.90;;;;;;5097340;28;20061;-79
2022/06/23 02:55:49;;;;;;;9.85;8.40;;;15.90;99.90;;;;;;5096556;28;20035;-78
2022/06/23 02:58:36;;;;;;;11.30;8.35;;;15.90;99.90;;;;;;5097107;28;20024;-79
2022/06/23 03:01:18;;;;;;;12.18;8.25;;;15.80;99.90;;;;;;5097099;28;20028;-79
2022/06/23 03:03:59;;;;;;;11.57;8.38;;;15.70;99.90;;;;;;5098038;28;20472;-80
2022/06/23 03:06:36;;;;;;;18.08;9.27;;;15.80;99.90;;;;;;5096865;28;20498;-79
2022/06/23 03:09:09;;;;;;;12.50;7.82;;;15.70;99.90;;;;;;5096343;28;20028;-79
2022/06/23 03:11:52;;;;;;;12.38;8.77;;;15.60;99.90;;;;;;5097122;28;20028;-80
2022/06/23 03:14:53;;;;;;;16.88;9.30;;;15.50;99.90;;;;;;5098320;28;20487;-79
2022/06/23 03:17:20;;;;;;;12.75;8.73;;;15.70;99.90;;;;;;5096749;28;20028;-79
2022/06/23 03:20:01;;;;;;;12.30;9.00;;;15.60;99.90;;;;;;5097312;28;20077;-78
2022/06/23 03:22:51;;;;;;;10.27;8.80;;;15.60;99.90;;;;;;5097774;28;20460;-80
2022/06/23 03:25:57;;;;;;;10.23;7.70;;;15.50;99.90;;;;;;5094883;28;20494;-79
2022/06/23 03:28:52;;;;;;;10.02;8.75;;;15.50;99.90;;;;;;4992360;28;20061;-80
2022/06/23 03:31:32;;;;;;;19.08;9.20;;;15.50;99.90;;;;;;5093052;28;20484;-79
2022/06/23 03:34:06;;;;;;;12.80;8.43;;;15.50;99.90;;;;;;5096442;28;20536;-79
2022/06/23 03:36:42;;;;;;;12.00;9.38;;;15.60;99.90;;;;;;5095501;28;20365;-78
2022/06/23 03:42:23;;;;;;;11.27;8.82;;;15.60;99.90;;;;;;5095374;28;20093;-79
2022/06/23 03:45:10;;;;;;;10.82;8.57;;;15.70;99.90;;;;;;5094354;28;20044;-79
2022/06/23 03:47:45;;;;;;;12.57;7.90;;;15.60;99.90;;;;;;5096443;28;20048;-78
2022/06/23 03:50:47;;;;;;;11.60;8.15;;;15.60;99.90;;;;;;5094655;28;20099;-78
2022/06/23 03:53:20;;;;;;;11.25;9.32;;;15.70;99.90;;;;;;5093102;28;20031;-78
2022/06/23 03:55:51;;;;;;;17.40;9.20;;;15.60;99.90;;;;;;5093907;28;20020;-79
2022/06/23 03:58:19;;;;;;;12.88;7.95;;;15.70;99.90;;;;;;5096169;28;20392;-79
2022/06/23 04:01:04;;;;;;;12.20;8.07;;;15.70;99.90;;;;;;5098227;28;20059;-80
2022/06/23 04:03:51;;;;;;;13.30;8.25;;;15.70;99.90;;;;;;5098710;28;20075;-80
2022/06/23 04:06:21;;;;;;;17.80;8.82;;;15.70;99.90;;;;;;5097005;28;20501;-79
2022/06/23 04:08:57;;;;;;;9.80;7.90;;;15.70;99.90;;;;;;5097788;28;20063;-79
2022/06/23 04:11:46;;;;;;;13.38;8.27;;;15.70;99.90;;;;;;5097726;28;20024;-80
2022/06/23 04:14:32;;;;;;;10.50;8.32;;;15.80;99.90;;;;;;5096990;28;20034;-79
2022/06/23 04:17:27;;;;;;;11.50;8.95;;;15.80;99.90;;;;;;5098141;28;20111;-80
2022/06/23 04:20:01;;;;;;;11.30;8.55;;;15.80;99.90;;;;;;5085642;28;20093;-79
2022/06/23 04:22:42;;;;;;;11.35;8.10;;;15.80;99.90;;;;;;5098062;28;20020;-79
2022/06/23 04:25:11;;;;;;;;;;;15.80;99.90;;;;;;5098526;28;20036;-79
2022/06/23 04:27:43;;;;;;;10.63;8.63;;;15.90;99.90;;;;;;5096789;28;20006;-80
2022/06/23 04:30:27;;;;;;;9.75;8.77;;;16.00;99.90;;;;;;5097398;28;20065;-80
2022/06/23 04:32:55;;;;;;;9.13;8.10;;;15.90;99.90;;;;;;5097874;28;20046;-80
2022/06/23 04:35:26;;;;;;;12.77;7.95;;;15.90;99.90;;;;;;5096740;28;20473;-79
2022/06/23 04:37:58;;;;;;;12.50;8.85;;;15.90;99.90;;;;;;5097638;28;20035;-79
2022/06/23 04:40:32;;;;;;;12.90;9.15;;;16.00;99.90;;;;;;5096397;28;20019;-79
2022/06/23 04:43:14;;;;;;;14.40;8.57;;;16.00;99.90;;;;;;5096642;28;20077;-79
2022/06/23 04:45:42;;;;;;;11.25;7.68;;;16.00;99.90;;;;;;5097456;28;20047;-78
2022/06/23 04:48:17;;;;;;;13.82;8.73;;;16.10;99.90;;;;;;5096045;28;20065;-78
2022/06/23 04:51:11;;;;;;;10.48;8.45;;;16.20;99.90;;;;;;5096990;28;20020;-81
2022/06/23 04:53:51;;;;;;;13.88;9.05;;;16.20;99.90;;;;;;5091878;28;20104;-78
2022/06/23 04:56:24;;;;;;;10.13;8.00;;;16.30;99.90;;;;;;5096480;28;20027;-79
2022/06/23 04:58:58;;;;;;;9.80;8.57;;;16.40;99.90;;;;;;5097265;28;20032;-79
2022/06/23 05:01:33;;;;;;;8.43;7.60;;;16.50;99.90;;;;;;5096591;28;20060;-79
2022/06/23 05:04:00;;;;;;;8.88;8.02;;;16.50;99.90;;;;;;5097057;28;20025;-77
2022/06/23 05:06:38;;;;;;;13.35;9.48;;;16.60;99.90;;;;;;5096607;28;20118;-79
2022/06/23 05:09:28;;;;;;;13.43;9.00;;;16.70;99.90;;;;;;5094121;28;20020;-80
2022/06/23 05:12:02;;;;;;;11.18;8.00;;;16.70;99.90;;;;;;5097208;28;20145;-78
2022/06/23 05:14:46;;;;;;;18.30;9.02;;;16.80;99.90;;;;;;5097015;28;20115;-79
2022/06/23 05:17:26;;;;;;;8.73;8.00;;;16.90;99.90;;;;;;5095830;28;20107;-79
2022/06/23 05:19:58;;;;;;;11.10;8.27;;;17.00;99.90;;;;;;5096704;28;20040;-78
2022/06/23 05:22:34;;;;;;;9.68;7.57;;;17.10;99.90;;;;;;5096517;28;20035;-79
2022/06/23 05:25:10;;;;;;;12.75;8.57;;;17.10;99.90;;;;;;5096930;28;20043;-78
2022/06/23 05:27:36;;;;;;;8.60;7.80;;;17.30;99.90;;;;;;5096280;28;20115;-80
2022/06/23 05:30:16;;;;;;;13.18;8.88;;;17.40;99.90;;;;;;5095569;28;20047;-81
2022/06/23 05:32:45;;;;;;;;;;;17.50;99.90;;;;;;5096794;28;20050;-78
2022/06/23 05:35:28;;;;;;;9.50;7.97;;;17.50;99.90;;;;;;5095620;28;20348;-79
2022/06/23 05:38:00;;;;;;;13.35;8.63;;;17.70;99.90;;;;;;5096190;28;20144;-78
2022/06/23 05:40:34;;;;;;;8.90;7.78;;;17.70;99.90;;;;;;5100462;28;20040;-79
2022/06/23 05:43:02;;;;;;;8.10;7.30;;;17.80;99.90;;;;;;5097539;28;20026;-79
2022/06/23 05:45:38;;;;;;;10.52;8.13;;;17.90;99.90;;;;;;5096461;28;20036;-79
2022/06/23 05:48:07;;;;;;;9.73;7.63;;;18.00;99.90;;;;;;5096710;28;20042;-82
2022/06/23 05:50:41;;;;;;;8.88;8.05;;;18.00;99.90;;;;;;5098419;28;20028;-79
2022/06/23 05:53:31;;;;;;;14.25;8.05;;;18.00;99.90;;;;;;5096656;28;20387;-78
2022/06/23 05:56:12;;;;;;;10.37;7.37;;;18.20;99.90;;;;;;5098110;28;20020;-80
2022/06/23 05:59:01;;;;;;;10.55;9.15;;;18.20;99.90;;;;;;5095217;28;20028;-78
2022/06/23 06:01:47;;;;;;;12.82;8.85;;;18.20;99.90;;;;;;5095010;28;20029;-78
2022/06/23 06:04:42;;;;;;;9.18;7.60;;;18.30;99.90;;;;;;5096012;28;20053;-81
2022/06/23 06:07:13;;;;;;;11.82;7.75;;;18.30;99.90;;;;;;5058450;28;20071;-80
2022/06/23 06:09:40;;;;;;;12.82;8.52;;;18.40;99.90;;;;;;5095687;28;20048;-79
2022/06/23 06:12:14;;;;;;;9.88;7.70;;;18.50;99.90;;;;;;5095169;28;20063;-80
2022/06/23 06:14:44;;;;;;;15.13;8.30;;;18.40;99.90;;;;;;5095491;28;20054;-79
2022/06/23 06:17:18;;;;;;;11.68;8.43;;;18.50;99.90;;;;;;5094522;28;20105;-79
2022/06/23 06:19:44;;;;;;;13.43;8.55;;;18.50;99.90;;;;;;5093387;28;20445;-79
2022/06/23 06:22:37;;;;;;;10.65;8.32;;;18.60;99.90;;;;;;5094511;28;20028;-79
2022/06/23 06:25:05;;;;;;;13.50;8.20;;;18.60;99.90;;;;;;5094092;28;20048;-78
2022/06/23 06:27:31;;;;;;;12.98;8.05;;;18.70;99.90;;;;;;5093391;28;20141;-78
2022/06/23 06:29:57;;;;;;;9.23;7.57;;;18.80;99.90;;;;;;5094110;28;20109;-80
2022/06/23 06:32:37;;;;;;;8.27;7.45;;;18.80;99.90;;;;;;5094060;28;20030;-78
2022/06/23 06:35:19;;;;;;;9.82;7.78;;;18.80;99.90;;;;;;5093195;28;20377;-80
2022/06/23 06:37:50;;;;;;;11.13;7.22;;;19.00;99.90;;;;;;5094057;28;20468;-79
2022/06/23 06:40:16;;;;;;;14.43;9.00;;;19.10;99.90;;;;;;5093629;28;20023;-79
2022/06/23 06:42:47;;;;;;;14.27;8.05;;;19.20;99.90;;;;;;5095596;28;20569;-78
2022/06/23 06:45:18;;;;;;;8.45;7.32;;;19.30;99.90;;;;;;5095665;28;20438;-79
2022/06/23 06:47:44;;;;;;;10.05;8.20;;;19.40;99.90;;;;;;5094577;28;20059;-80
2022/06/23 06:50:18;;;;;;;9.02;7.65;;;19.40;99.90;;;;;;5095658;28;20028;-79
2022/06/23 06:52:47;;;;;;;12.45;8.18;;;19.50;99.90;;;;;;5095205;28;20026;-81
2022/06/23 06:55:21;;;;;;;12.68;8.43;;;19.50;99.90;;;;;;5094282;28;20494;-79
2022/06/23 06:57:54;;;;;;;7.95;7.15;;;19.60;99.90;;;;;;5095231;28;20031;-80
2022/06/23 07:00:28;;;;;;;11.02;7.25;;;19.70;99.90;;;;;;5094999;28;20031;-80
2022/06/23 07:02:59;;;;;;;12.70;8.63;;;19.80;99.90;;;;;;5095825;28;20040;-80
2022/06/23 07:05:36;;;;;;;11.68;7.75;;;19.90;99.90;;;;;;5096546;28;20423;-80
2022/06/23 07:08:32;;;;;;;10.65;8.43;;;19.90;99.90;;;;;;5096335;28;20043;-80
2022/06/23 07:11:04;;;;;;;8.32;6.90;;;20.00;99.90;;;;;;5096494;28;20048;-80
2022/06/23 07:13:38;;;;;;;14.10;8.45;;;20.10;99.90;;;;;;5097102;28;20024;-79
2022/06/23 07:16:17;;;;;;;14.15;7.85;;;20.10;99.90;;;;;;5096956;28;20074;-78
2022/06/23 07:18:52;;;;;;;9.00;7.65;;;20.20;99.90;;;;;;5096811;28;20016;-79
2022/06/23 07:21:21;;;;;;;9.40;8.40;;;20.30;99.90;;;;;;5095670;28;20031;-78
2022/06/23 07:23:59;;;;;;;9.32;7.72;;;20.30;99.90;;;;;;5093780;28;20074;-80
2022/06/23 07:26:42;;;;;;;9.32;8.38;;;20.40;99.90;;;;;;5094946;28;20038;-80
2022/06/23 07:29:46;;;;;;;12.90;8.30;;;20.50;99.90;;;;;;5077003;28;20499;-79
2022/06/23 07:32:11;;;;;;;11.93;7.35;;;20.60;99.90;;;;;;5093672;28;20457;-81
2022/06/23 07:34:46;;;;;;;13.27;9.55;;;20.60;99.90;;;;;;5095601;28;20088;-78
2022/06/23 07:37:26;;;;;;;13.93;9.30;;;20.70;99.90;;;;;;5094964;28;20028;-79
2022/06/23 07:39:59;;;;;;;15.02;9.52;;;20.70;99.90;;;;;;5095341;28;20028;-79
2022/06/23 07:42:35;;;;;;;13.93;10.27;;;20.80;99.90;;;;;;5095428;28;20028;-79
2022/06/23 07:45:09;;;;;;;11.63;8.52;;;20.80;99.90;;;;;;5095011;28;20031;-79
2022/06/23 07:47:34;;;;;;;13.43;8.80;;;20.90;99.90;;;;;;5099779;28;20032;-79
2022/06/23 07:50:01;;;;;;;15.15;8.70;;;21.00;99.90;;;;;;5095088;28;20017;-78
2022/06/23 07:52:27;;;;;;;12.38;7.63;;;21.10;99.90;;;;;;5093469;28;20097;-78
2022/06/23 07:54:53;;;;;;;12.50;8.75;;;21.20;99.90;;;;;;5095688;28;20077;-78
2022/06/23 07:57:19;;;;;;;15.77;9.63;;;21.20;99.90;;;;;;5102798;28;20448;-80
2022/06/23 07:59:50;;;;;;;12.15;8.70;;;21.40;99.90;;;;;;5095306;28;20057;-79
2022/06/23 08:02:25;;;;;;;14.23;9.45;;;21.50;99.90;;;;;;5101949;28;20094;-79
2022/06/23 08:05:06;;;;;;;19.23;10.18;;;21.60;99.90;;;;;;5096668;28;20387;-79
2022/06/23 08:07:33;;;;;;;12.10;9.35;;;21.70;99.90;;;;;;5094853;28;20042;-81
2022/06/23 08:10:03;;;;;;;11.40;9.40;;;21.80;99.90;;;;;;5093971;28;20020;-80
2022/06/23 08:18:36;;;;;;;14.10;9.00;;;21.90;99.90;;;;;;5094325;28;20363;-80
2022/06/23 08:21:11;;;;;;;11.23;9.35;;;22.00;99.90;;;;;;5093991;28;20024;-80
2022/06/23 08:23:47;;;;;;;11.00;9.30;;;22.00;99.90;;;;;;5093702;28;20471;-79
2022/06/23 08:26:16;;;;;;;9.50;8.60;;;22.00;99.90;;;;;;5093859;28;20111;-80
2022/06/23 08:28:42;;;;;;;23.42;11.10;;;22.20;99.90;;;;;;5094043;28;20062;-80
2022/06/23 08:31:08;;;;;;;13.40;10.20;;;22.30;99.90;;;;;;5094714;28;20020;-79
2022/06/23 08:33:34;;;;;;;18.15;11.18;;;22.40;99.90;;;;;;5093900;28;20403;-79
2022/06/23 08:36:11;;;;;;;10.80;9.35;;;22.50;99.90;;;;;;5094134;28;20028;-78
2022/06/23 08:38:56;;;;;;;15.05;11.60;;;22.70;99.90;;;;;;5094463;28;20376;-80
2022/06/23 08:41:33;;;;;;;11.93;9.65;;;22.80;99.90;;;;;;5093753;28;20020;-80
2022/06/23 08:44:11;;;;;;;13.77;10.85;;;22.80;99.90;;;;;;5098400;28;20028;-79
2022/06/23 08:46:49;;;;;;;10.70;9.48;;;23.00;99.90;;;;;;5112414;28;20035;-80
2022/06/23 08:49:32;;;;;;;10.95;9.52;;;23.00;99.90;;;;;;5101985;28;20027;-78
2022/06/23 08:52:12;;;;;;;16.35;12.48;;;23.10;99.90;;;;;;5098215;28;20073;-81
2022/06/23 08:55:13;;;;;;;16.63;10.88;;;23.20;99.90;;;;;;5097470;28;20112;-78
2022/06/23 08:58:03;;;;;;;12.60;11.23;;;23.20;99.90;;;;;;5097547;28;20078;-78
2022/06/23 09:01:10;;;;;;;15.93;11.25;;;23.40;99.90;;;;;;5097422;28;20073;-80
2022/06/23 09:03:41;;;;;;;13.05;10.63;;;23.50;99.90;;;;;;5089843;28;20052;-78
2022/06/23 09:06:09;;;;;;;22.13;13.27;;;23.50;99.90;;;;;;5097448;28;20024;-78
2022/06/23 09:08:40;;;;;;;14.15;11.57;;;23.60;99.90;;;;;;5097130;28;20380;-80
2022/06/23 09:11:41;;;;;;;21.15;12.63;;;23.70;99.90;;;;;;5097692;28;20023;-79
2022/06/23 09:14:25;;;;;;;16.88;12.52;;;23.80;99.90;;;;;;5098149;28;20098;-78
2022/06/23 09:17:11;;;;;;;17.20;11.68;;;23.90;99.90;;;;;;5096870;28;20031;-80
2022/06/23 09:20:08;;;;;;;13.02;11.40;;;24.00;99.90;;;;;;5097431;28;20020;-78
2022/06/23 09:22:55;;;;;;;13.15;11.45;;;24.20;99.90;;;;;;5088333;28;20036;-78
2022/06/23 09:25:36;;;;;;;15.35;10.98;;;24.30;99.90;;;;;;5096562;28;20108;-79
2022/06/23 09:28:40;;;;;;;13.50;10.68;;;24.40;99.90;;;;;;5096407;28;20123;-79
2022/06/23 09:31:18;;;;;;;16.00;12.27;;;24.50;99.90;;;;;;5034126;28;20022;-77
2022/06/23 09:34:18;;;;;;;16.35;11.00;;;24.60;99.90;;;;;;5034390;28;20021;-77
2022/06/23 09:36:49;;;;;;;;;;;24.70;99.90;;;;;;5084031;28;20540;-78
2022/06/23 09:39:27;;;;;;;14.50;10.32;;;24.80;99.90;;;;;;5097932;28;19936;-78
2022/06/23 09:42:23;;;;;;;15.60;9.98;;;24.80;99.90;;;;;;5097799;28;20028;-79
2022/06/23 09:45:10;;;;;;;14.95;10.07;;;24.90;99.90;;;;;;5096930;28;20088;-78
2022/06/23 09:47:58;;;;;;;22.70;10.65;;;25.00;99.90;;;;;;5097757;28;20032;-77
2022/06/23 09:50:33;;;;;;;19.65;11.90;;;25.20;99.90;;;;;;5088480;28;20044;-78
2022/06/23 09:53:29;;;;;;;19.00;10.32;;;25.30;99.90;;;;;;5102486;28;20024;-79
2022/06/23 09:56:13;;;;;;;15.88;10.35;;;25.40;99.90;;;;;;5103001;28;20028;-78
2022/06/23 09:58:49;;;;;;;11.82;9.45;;;25.40;99.90;;;;;;5098560;28;20101;-79
2022/06/23 10:01:30;;;;;;;17.45;9.95;;;25.50;99.90;;;;;;5096854;28;20059;-80
2022/06/23 10:03:58;;;;;;;;;;;25.60;99.90;;;;;;5102273;28;20035;-79
2022/06/23 10:06:48;;;;;;;12.50;9.15;;;25.70;99.90;;;;;;5098022;28;19908;-80
2022/06/23 10:09:23;;;;;;;9.90;8.80;;;25.70;99.90;;;;;;5105172;28;20114;-78
2022/06/23 10:12:14;;;;;;;14.70;8.07;;;25.90;99.90;;;;;;5101279;28;20062;-79
2022/06/23 10:15:01;;;;;;;19.88;10.55;;;25.90;99.90;;;;;;5096645;28;20076;-78
2022/06/23 10:17:42;;;;;;;16.13;8.82;;;26.00;99.90;;;;;;5097129;28;20035;-79
2022/06/23 10:20:44;;;;;;;13.13;7.13;;;26.10;99.90;;;;;;5096120;28;20077;-80
2022/06/23 10:23:26;;;;;;;13.52;7.80;;;26.20;99.90;;;;;;5096023;28;20049;-79
2022/06/23 10:26:03;;;;;;;13.88;8.15;;;26.20;99.90;;;;;;5094403;28;20158;-78
2022/06/23 10:29:05;;;;;;;9.00;6.50;;;26.40;99.90;;;;;;5095505;28;20032;-78
2022/06/23 10:31:59;;;;;;;17.33;9.25;;;26.40;99.90;;;;;;5095263;28;20491;-79
2022/06/23 10:34:57;;;;;;;10.55;6.57;;;26.50;99.90;;;;;;5094849;28;20107;-79
2022/06/23 10:37:29;;;;;;;11.00;6.85;;;26.60;99.90;;;;;;5038973;28;20043;-79
2022/06/23 10:40:03;;;;;;;11.43;6.28;;;26.60;99.90;;;;;;5094602;28;20059;-79
2022/06/23 10:42:52;;;;;;;9.38;5.82;;;26.80;99.90;;;;;;5094567;28;20016;-79
2022/06/23 10:45:55;;;;;;;14.60;6.70;;;26.90;99.90;;;;;;5093794;28;20073;-79
2022/06/23 10:48:42;;;;;;;9.70;5.63;;;27.00;99.90;;;;;;5093633;28;20031;-79
2022/06/23 10:51:10;;;;;;;7.45;5.05;;;27.00;99.60;;;;;;5095066;28;20028;-79
2022/06/23 10:54:10;;;;;;;8.80;6.85;;;27.10;99.80;;;;;;5094018;28;20456;-79
2022/06/23 10:56:57;;;;;;;12.57;6.95;;;27.30;99.30;;;;;;5094875;28;20082;-78
2022/06/23 10:59:48;;;;;;;13.95;6.20;;;27.30;99.40;;;;;;5094306;28;20050;-81
2022/06/23 11:02:44;;;;;;;9.05;5.90;;;27.50;99.40;;;;;;5093003;28;20079;-79
2022/06/23 11:05:50;;;;;;;13.10;7.07;;;27.50;99.20;;;;;;5093565;28;20419;-79
2022/06/23 11:08:43;;;;;;;10.60;5.50;;;27.50;98.90;;;;;;5092000;28;20027;-78
2022/06/23 11:11:36;;;;;;;11.07;5.63;;;27.60;99.00;;;;;;5094487;28;20415;-79
2022/06/23 11:14:37;;;;;;;14.55;6.28;;;27.70;99.10;;;;;;5094041;28;20122;-79
2022/06/23 11:17:23;;;;;;;10.52;5.10;;;28.00;98.60;;;;;;5093139;28;20040;-81
2022/06/23 11:19:57;;;;;;;11.05;5.95;;;28.40;98.40;;;;;;5093267;28;20476;-78
2022/06/23 11:22:41;;;;;;;11.27;6.63;;;28.30;98.00;;;;;;5092431;28;20043;-78
2022/06/23 11:25:30;;;;;;;9.38;5.78;;;28.30;97.40;;;;;;5093346;28;20484;-78
2022/06/23 11:28:22;;;;;;;10.70;5.30;;;28.20;97.70;;;;;;5093113;28;20518;-79
2022/06/23 11:30:53;;;;;;;12.82;6.68;;;28.30;97.70;;;;;;5093433;28;20448;-79
2022/06/23 11:33:42;;;;;;;7.40;4.90;;;28.30;97.60;;;;;;5096576;28;20063;-78
2022/06/23 11:36:37;;;;;;;9.60;6.40;;;28.40;97.80;;;;;;5095855;28;20025;-82
2022/06/23 11:39:26;;;;;;;12.18;5.30;;;28.80;97.60;;;;;;5078894;28;20025;-78
2022/06/23 11:42:07;;;;;;;5.85;3.97;;;29.00;97.00;;;;;;5073556;28;20021;-78
2022/06/23 11:44:51;;;;;;;8.30;5.03;;;29.00;96.70;;;;;;5072109;28;20036;-74
2022/06/23 11:47:35;;;;;;;14.18;4.78;;;29.00;96.60;;;;;;5089574;28;20032;-75
2022/06/23 11:50:05;;;;;;;12.50;4.95;;;29.10;96.70;;;;;;5092945;28;20031;-80
2022/06/23 11:52:55;;;;;;;10.20;5.50;;;29.30;96.90;;;;;;5093685;28;20081;-81
2022/06/23 11:55:48;;;;;;;13.25;5.30;;;29.50;96.50;;;;;;5092727;28;20099;-76
2022/06/23 11:58:47;;;;;;;14.70;5.22;;;29.50;96.30;;;;;;5083433;28;20032;-75
2022/06/23 12:01:22;;;;;;;6.93;4.68;;;29.50;96.10;;;;;;5093359;28;20517;-75
2022/06/23 12:04:13;;;;;;;12.15;5.47;;;29.50;96.10;;;;;;5092365;28;20089;-74
2022/06/23 12:06:52;;;;;;;5.45;3.97;;;29.40;96.20;;;;;;5093269;28;20047;-74
2022/06/23 12:09:51;;;;;;;9.10;4.40;;;29.50;96.30;;;;;;5093530;28;20024;-74
2022/06/23 12:12:19;;;;;;;13.23;4.45;;;29.50;96.10;;;;;;5092911;28;20028;-74
2022/06/23 12:14:45;;;;;;;6.97;4.40;;;29.30;96.30;;;;;;5092917;28;20020;-74
2022/06/23 12:17:29;;;;;;;7.75;4.63;;;29.30;96.50;;;;;;5092710;28;20036;-76
2022/06/23 12:20:20;;;;;;;11.65;5.55;;;29.30;96.80;;;;;;5085941;28;20021;-73
2022/06/23 12:23:12;;;;;;;7.93;4.50;;;29.20;96.50;;;;;;5076947;28;20029;-81
2022/06/23 12:25:56;;;;;;;6.60;4.53;;;29.30;96.60;;;;;;5096385;28;20035;-80
2022/06/23 12:28:45;;;;;;;10.95;5.45;;;29.60;96.40;;;;;;5087261;28;20044;-81
2022/06/23 12:31:29;;;;;;;9.98;5.15;;;30.00;96.00;;;;;;5090889;28;20021;-81
2022/06/23 12:34:03;;;;;;;12.38;5.22;;;30.30;96.00;;;;;;5088239;28;20024;-73
2022/06/23 12:36:46;;;;;;;9.68;4.28;;;30.50;95.60;;;;;;5091394;28;20070;-77
2022/06/23 12:39:27;;;;;;;8.27;4.28;;;30.60;95.70;;;;;;5089020;28;20351;-79
2022/06/23 12:41:59;;;;;;;10.35;4.28;;;30.80;95.10;;;;;;5094928;28;20044;-77
2022/06/23 12:44:55;;;;;;;10.85;4.80;;;30.70;94.70;;;;;;5089117;28;20033;-79
2022/06/23 12:47:29;;;;;;;9.65;4.10;;;30.60;94.30;;;;;;5075871;28;20357;-80
2022/06/23 12:50:09;;;;;;;17.45;5.38;;;30.50;94.40;;;;;;5074588;28;20028;-80
2022/06/23 12:52:40;;;;;;;;;;;30.60;94.70;;;;;;5075754;28;20108;-79
2022/06/23 12:55:29;;;;;;;13.38;5.28;;;30.80;94.60;;;;;;5079210;28;19904;-79
2022/06/23 12:58:01;;;;;;;13.07;5.33;;;31.00;93.80;;;;;;5095114;28;20020;-79
2022/06/23 13:00:51;;;;;;;10.07;4.75;;;31.10;93.70;;;;;;5092259;28;20019;-79
2022/06/23 13:03:50;;;;;;;13.25;5.55;;;31.30;93.40;;;;;;5075792;28;20056;-79
2022/06/23 13:06:37;;;;;;;8.05;4.00;;;31.40;92.60;;;;;;5085383;28;20028;-79
2022/06/23 13:09:22;;;;;;;8.73;4.60;;;31.30;92.40;;;;;;5076306;28;20412;-78
2022/06/23 13:12:22;;;;;;;10.85;4.20;;;31.20;92.50;;;;;;5086119;28;20365;-73
2022/06/23 13:14:51;;;;;;;9.82;5.05;;;30.90;93.00;;;;;;5084664;28;20151;-79
2022/06/23 13:17:25;;;;;;;12.35;5.20;;;30.80;93.20;;;;;;5085603;28;20024;-79
2022/06/23 13:19:59;;;;;;;8.82;4.05;;;30.70;93.10;;;;;;5090931;28;20124;-79
2022/06/23 13:22:25;;;;;;;8.18;4.13;;;30.80;92.90;;;;;;5078095;28;20085;-79
2022/06/23 13:24:56;;;;;;;10.77;4.95;;;30.70;93.00;;;;;;5085368;28;20085;-78
2022/06/23 13:27:26;;;;;;;10.82;4.80;;;31.00;93.40;;;;;;5087690;28;20063;-80
2022/06/23 13:29:53;;;;;;;7.05;3.50;;;31.30;92.60;;;;;;5082746;28;20044;-78
2022/06/23 13:32:47;;;;;;;10.52;4.20;;;31.50;91.70;;;;;;5088643;28;20097;-77
2022/06/23 13:35:21;;;;;;;6.43;3.53;;;31.90;90.90;;;;;;5089127;28;20039;-79
2022/06/23 13:38:11;;;;;;;6.38;4.15;;;32.10;91.00;;;;;;5087011;28;20032;-79
2022/06/23 13:40:42;;;;;;;;;;;32.10;90.70;;;;;;5088679;28;20031;-78
2022/06/23 13:43:11;;;;;;;10.32;3.67;;;32.30;90.20;;;;;;5089397;28;19914;-78
2022/06/23 13:45:52;;;;;;;6.50;3.47;;;32.40;90.10;;;;;;5086965;28;20419;-77
2022/06/23 13:48:45;;;;;;;8.65;3.92;;;32.40;89.30;;;;;;5084308;28;20051;-79
2022/06/23 13:51:29;;;;;;;6.82;3.65;;;32.20;89.30;;;;;;5079145;28;20024;-77
2022/06/23 13:54:06;;;;;;;10.23;4.50;;;31.90;89.30;;;;;;5085736;28;20043;-79
2022/06/23 13:56:43;;;;;;;5.50;4.00;;;31.70;90.00;;;;;;5087837;28;20032;-78